Time;durP1;ratioP1;P1;durP2;ratioP2;P2;SDS_P1;SDS_P2;PMS_P1;PMS_P2;Temp;Humidity;BMP_temperature;BMP_pressure;BME280_temperature;BME280_humidity;BME280_pressure;Samples;Min_cycle;Max_cycle;Signal;HPM_P1;HPM_P2
2023/09/17 00:00:05;;;;;;;;;;;;;;;18.27;100.00;100290.31;5051062;28;832;-61
2023/09/17 00:02:32;;;;;;;;;;;;;;;18.26;100.00;100283.13;5051064;28;858;-61
2023/09/17 00:04:59;;;;;;;;;;;;;;;18.26;100.00;100281.09;5052612;28;823;-61
2023/09/17 00:07:26;;;;;;;;;;;;;;;18.29;100.00;100271.06;5054766;28;1953;-61
2023/09/17 00:09:54;;;;;;;;;;;;;;;18.27;100.00;100276.31;5054778;28;866;-61
2023/09/17 00:12:21;;;;;;;;;;;;;;;18.21;100.00;100266.88;5054635;28;1030;-61
2023/09/17 00:14:49;;;;;;;;;;;;;;;18.19;100.00;100266.56;5054153;28;1285;-61
2023/09/17 00:17:16;;;;;;;;;;;;;;;18.17;100.00;100253.78;5054463;28;898;-61
2023/09/17 00:19:43;;;;;;;;;;;;;;;18.14;100.00;100254.69;5036484;28;1354;-61
2023/09/17 00:22:14;;;;;;;;;;;;;;;18.11;100.00;100249.94;5054526;28;816;-61
2023/09/17 00:24:41;;;;;;;;;;;;;;;18.06;100.00;100247.72;5054355;28;938;-61
2023/09/17 00:27:09;;;;;;;;;;;;;;;18.05;100.00;100256.53;5054498;28;1975;-61
2023/09/17 00:29:36;;;;;;;;;;;;;;;18.11;100.00;100252.75;5054207;28;954;-61
2023/09/17 00:32:03;;;;;;;;;;;;;;;18.10;100.00;100259.59;5054168;28;879;-61
2023/09/17 00:34:30;;;;;;;;;;;;;;;18.08;100.00;100264.06;5054003;28;875;-61
2023/09/17 00:37:00;;;;;;;;;;;;;;;18.01;100.00;100264.25;5054058;28;886;-61
2023/09/17 00:39:27;;;;;;;;;;;;;;;17.90;100.00;100261.75;5054517;28;883;-61
2023/09/17 00:41:54;;;;;;;;;;;;;;;17.88;100.00;100258.59;5054186;28;942;-61
2023/09/17 00:44:22;;;;;;;;;;;;;;;17.82;100.00;100260.38;5054194;28;875;-61
2023/09/17 00:46:50;;;;;;;;;;;;;;;17.65;100.00;100254.81;5053886;28;1955;-61
2023/09/17 00:49:17;;;;;;;;;;;;;;;17.53;100.00;100261.91;5053862;28;860;-61
2023/09/17 00:51:45;;;;;;;;;;;;;;;17.44;100.00;100256.16;5053842;28;836;-61
2023/09/17 00:54:13;;;;;;;;;;;;;;;17.38;100.00;100249.53;5053673;28;891;-62
2023/09/17 00:56:40;;;;;;;;;;;;;;;17.38;100.00;100265.50;5035786;28;1439;-61
2023/09/17 00:59:08;;;;;;;;;;;;;;;17.36;100.00;100257.56;5053878;28;907;-61
2023/09/17 01:01:36;;;;;;;;;;;;;;;17.33;100.00;100262.03;5053639;28;808;-62
2023/09/17 01:04:03;;;;;;;;;;;;;;;17.32;100.00;100260.44;5053443;28;886;-61
2023/09/17 01:06:31;;;;;;;;;;;;;;;17.41;100.00;100261.81;5053459;28;1973;-61
2023/09/17 01:08:58;;;;;;;;;;;;;;;17.47;100.00;100262.88;5053332;28;829;-61
2023/09/17 01:11:25;;;;;;;;;;;;;;;17.46;100.00;100258.53;5053526;28;820;-61
2023/09/17 01:13:58;;;;;;;;;;;;;;;17.44;100.00;100252.59;5035639;28;1284;-61
2023/09/17 01:16:26;;;;;;;;;;;;;;;17.47;100.00;100255.25;5052101;28;1444;-61
2023/09/17 01:18:53;;;;;;;;;;;;;;;17.51;100.00;100255.19;5053371;28;843;-61
2023/09/17 01:21:38;;;;;;;;;;;;;;;17.55;100.00;100258.66;5035337;28;1269;-61
2023/09/17 01:24:08;;;;;;;;;;;;;;;17.53;100.00;100253.50;5052997;28;808;-61
2023/09/17 01:26:37;;;;;;;;;;;;;;;17.52;100.00;100254.75;5053069;28;1909;-61
2023/09/17 01:29:05;;;;;;;;;;;;;;;17.49;100.00;100250.03;5053015;28;876;-61
2023/09/17 01:31:34;;;;;;;;;;;;;;;17.47;100.00;100254.47;5053065;28;832;-61
2023/09/17 01:34:01;;;;;;;;;;;;;;;17.51;100.00;100250.38;5052939;28;836;-61
2023/09/17 01:36:35;;;;;;;;;;;;;;;17.57;100.00;100247.06;5052812;28;813;-61
2023/09/17 01:39:05;;;;;;;;;;;;;;;17.62;100.00;100254.91;5052905;28;907;-61
2023/09/17 01:41:33;;;;;;;;;;;;;;;17.62;100.00;100258.47;5052803;28;883;-61
2023/09/17 01:44:03;;;;;;;;;;;;;;;17.61;100.00;100245.72;5052959;28;889;-61
2023/09/17 01:46:31;;;;;;;;;;;;;;;17.63;100.00;100248.88;5052593;28;1914;-61
2023/09/17 01:48:59;;;;;;;;;;;;;;;17.64;100.00;100252.44;5052925;28;903;-61
2023/09/17 01:51:29;;;;;;;;;;;;;;;17.58;100.00;100252.22;5052713;28;789;-61
2023/09/17 01:53:56;;;;;;;;;;;;;;;17.51;100.00;100255.19;5052769;28;887;-61
2023/09/17 01:56:23;;;;;;;;;;;;;;;17.44;100.00;100255.38;5034726;28;1204;-61
2023/09/17 01:58:51;;;;;;;;;;;;;;;17.34;100.00;100255.19;5052525;28;894;-61
2023/09/17 02:01:19;;;;;;;;;;;;;;;17.30;100.00;100254.53;5052430;28;867;-61
2023/09/17 02:03:44;;;;;;;;;;;;;;;17.33;100.00;100250.06;5052355;28;859;-61
2023/09/17 02:06:12;;;;;;;;;;;;;;;17.40;100.00;100247.06;5052395;28;1893;-61
2023/09/17 02:08:39;;;;;;;;;;;;;;;17.49;100.00;100243.66;5052243;28;820;-61
2023/09/17 02:11:06;;;;;;;;;;;;;;;17.61;100.00;100250.53;5052319;28;804;-61
2023/09/17 02:13:32;;;;;;;;;;;;;;;17.61;100.00;100245.72;5052137;28;910;-61
2023/09/17 02:15:59;;;;;;;;;;;;;;;17.53;100.00;100247.91;5052000;28;1435;-61
2023/09/17 02:18:27;;;;;;;;;;;;;;;17.44;100.00;100247.00;5052138;28;879;-61
2023/09/17 02:20:54;;;;;;;;;;;;;;;17.32;100.00;100246.47;5052127;28;929;-61
2023/09/17 02:23:22;;;;;;;;;;;;;;;17.22;100.00;100241.97;5050663;28;928;-61
2023/09/17 02:25:49;;;;;;;;;;;;;;;17.13;100.00;100248.16;5051928;28;970;-61
2023/09/17 02:28:17;;;;;;;;;;;;;;;17.05;100.00;100243.97;5051588;28;1922;-61
2023/09/17 02:30:46;;;;;;;;;;;;;;;17.02;100.00;100250.41;5052056;28;876;-61
2023/09/17 02:33:13;;;;;;;;;;;;;;;17.08;100.00;100247.88;5052387;28;848;-61
2023/09/17 02:35:40;;;;;;;;;;;;;;;17.26;100.00;100231.47;5051965;28;864;-61
2023/09/17 02:38:07;;;;;;;;;;;;;;;17.35;100.00;100231.63;5052015;28;827;-61
2023/09/17 02:40:34;;;;;;;;;;;;;;;17.31;100.00;100238.53;5051895;28;812;-61
2023/09/17 02:43:02;;;;;;;;;;;;;;;17.22;100.00;100236.38;5052007;28;894;-61
2023/09/17 02:45:29;;;;;;;;;;;;;;;17.15;100.00;100239.31;5033884;28;1292;-61
2023/09/17 02:47:57;;;;;;;;;;;;;;;17.09;100.00;100238.28;5051685;28;1893;-62
2023/09/17 02:50:24;;;;;;;;;;;;;;;17.02;100.00;100235.66;5051747;28;891;-61
2023/09/17 02:52:51;;;;;;;;;;;;;;;16.99;100.00;100237.34;5051540;28;862;-62
2023/09/17 02:55:19;;;;;;;;;;;;;;;17.01;100.00;100236.91;5051713;28;953;-61
2023/09/17 02:57:48;;;;;;;;;;;;;;;17.04;100.00;100236.78;5051574;28;851;-61
2023/09/17 03:00:21;;;;;;;;;;;;;;;17.02;100.00;100233.66;5051610;28;934;-61
2023/09/17 03:02:54;;;;;;;;;;;;;;;17.01;100.00;100242.50;5051567;28;817;-61
2023/09/17 03:05:21;;;;;;;;;;;;;;;16.97;100.00;100231.41;5051675;28;832;-61
2023/09/17 03:07:49;;;;;;;;;;;;;;;16.99;100.00;100233.75;5051377;28;1959;-61
2023/09/17 03:10:20;;;;;;;;;;;;;;;17.02;100.00;100235.66;5051521;28;886;-61
2023/09/17 03:12:47;;;;;;;;;;;;;;;17.00;100.00;100232.53;5051642;28;932;-62
2023/09/17 03:15:14;;;;;;;;;;;;;;;16.96;100.00;100240.19;5051230;28;1318;-61
2023/09/17 03:17:42;;;;;;;;;;;;;;;16.91;100.00;100247.88;5051575;28;805;-61
2023/09/17 03:20:18;;;;;;;;;;;;;;;16.93;100.00;100245.44;5051437;28;900;-61
2023/09/17 03:22:45;;;;;;;;;;;;;;;17.00;100.00;100233.31;5051373;28;828;-61
2023/09/17 03:25:13;;;;;;;;;;;;;;;17.01;100.00;100239.69;5050080;28;1272;-61
2023/09/17 03:27:43;;;;;;;;;;;;;;;16.96;100.00;100235.41;5051338;28;1979;-61
2023/09/17 03:30:10;;;;;;;;;;;;;;;16.88;100.00;100237.59;5051241;28;887;-61
2023/09/17 03:32:37;;;;;;;;;;;;;;;16.88;100.00;100234.03;5051430;28;875;-61
2023/09/17 03:35:03;;;;;;;;;;;;;;;16.87;100.00;100238.03;5051162;28;877;-61
2023/09/17 03:37:31;;;;;;;;;;;;;;;16.90;100.00;100229.56;5051271;28;884;-61
2023/09/17 03:40:11;;;;;;;;;;;;;;;16.95;100.00;100236.63;5053147;28;907;-61
2023/09/17 03:42:38;;;;;;;;;;;;;;;17.02;100.00;100238.47;5055041;28;933;-61
2023/09/17 03:45:06;;;;;;;;;;;;;;;17.11;100.00;100242.22;5055131;28;819;-61
2023/09/17 03:47:34;;;;;;;;;;;;;;;17.15;100.00;100239.31;5037021;28;1958;-61
2023/09/17 03:50:04;;;;;;;;;;;;;;;17.14;100.00;100241.34;5054978;28;808;-61
2023/09/17 03:52:33;;;;;;;;;;;;;;;17.09;100.00;100243.84;5054788;28;911;-61
2023/09/17 03:55:01;;;;;;;;;;;;;;;17.00;100.00;100236.09;5054881;28;911;-61
2023/09/17 03:57:29;;;;;;;;;;;;;;;16.89;100.00;100241.94;5054841;28;917;-61
2023/09/17 03:59:56;;;;;;;;;;;;;;;16.80;100.00;100243.75;5054864;28;851;-61
2023/09/17 04:02:23;;;;;;;;;;;;;;;16.78;100.00;100248.97;5054740;28;928;-61
2023/09/17 04:04:51;;;;;;;;;;;;;;;16.88;100.00;100245.19;5054677;28;863;-61
2023/09/17 04:07:17;;;;;;;;;;;;;;;16.94;100.00;100244.22;5054590;28;1945;-61
2023/09/17 04:09:44;;;;;;;;;;;;;;;17.05;100.00;100245.97;5069953;28;1425;-61
2023/09/17 04:12:10;;;;;;;;;;;;;;;17.09;100.00;100241.88;5054533;28;1143;-61
2023/09/17 04:14:37;;;;;;;;;;;;;;;17.16;100.00;100252.09;5054203;28;1431;-61
2023/09/17 04:17:05;;;;;;;;;;;;;;;17.16;100.00;100252.09;5054456;28;856;-61
2023/09/17 04:19:32;;;;;;;;;;;;;;;17.19;100.00;100248.41;5054362;28;1008;-61
2023/09/17 04:21:59;;;;;;;;;;;;;;;17.21;100.00;100254.34;5054586;28;842;-61
2023/09/17 04:24:26;;;;;;;;;;;;;;;17.26;100.00;100253.81;5054313;28;880;-61
2023/09/17 04:26:56;;;;;;;;;;;;;;;17.27;100.00;100249.03;5054223;28;1922;-61
2023/09/17 04:29:23;;;;;;;;;;;;;;;17.30;100.00;100259.31;5054136;28;1235;-61
2023/09/17 04:31:53;;;;;;;;;;;;;;;17.31;100.00;100249.72;5054241;28;1212;-61
2023/09/17 04:34:20;;;;;;;;;;;;;;;17.34;100.00;100251.63;5054110;28;880;-61
2023/09/17 04:36:48;;;;;;;;;;;;;;;17.38;100.00;100252.31;5054152;28;828;-61
2023/09/17 04:39:16;;;;;;;;;;;;;;;17.42;100.00;100257.81;5053987;28;897;-61
2023/09/17 04:41:45;;;;;;;;;;;;;;;17.47;100.00;100262.88;5054088;28;903;-61
2023/09/17 04:44:12;;;;;;;;;;;;;;;17.54;100.00;100262.69;5053903;28;871;-60
2023/09/17 04:46:42;;;;;;;;;;;;;;;17.61;100.00;100267.31;5053823;28;1917;-61
2023/09/17 04:49:13;;;;;;;;;;;;;;;17.68;100.00;100259.50;5054164;28;860;-61
2023/09/17 04:51:40;;;;;;;;;;;;;;;17.74;100.00;100256.97;5053516;28;883;-61
2023/09/17 04:54:07;;;;;;;;;;;;;;;17.81;100.00;100265.16;5053807;28;828;-61
2023/09/17 04:56:35;;;;;;;;;;;;;;;17.91;100.00;100255.72;5053646;28;859;-60
2023/09/17 04:59:05;;;;;;;;;;;;;;;18.01;100.00;100253.88;5052396;28;1370;-61
2023/09/17 05:01:33;;;;;;;;;;;;;;;18.12;100.00;100250.75;5035674;28;1179;-60
2023/09/17 05:04:00;;;;;;;;;;;;;;;18.28;100.00;100253.47;5053615;28;919;-60
2023/09/17 05:06:26;;;;;;;;;;;;;;;18.41;100.00;100261.88;5035579;28;1894;-60
2023/09/17 05:08:53;;;;;;;;;;;;;;;18.51;100.00;100257.97;5053408;28;839;-60
2023/09/17 05:11:21;;;;;;;;;;;;;;;18.58;100.00;100259.78;5053477;28;844;-60
2023/09/17 05:13:46;;;;;;;;;;;;;;;18.67;100.00;100257.09;5053716;28;966;-60
2023/09/17 05:16:12;;;;;;;;;;;;;;;18.78;100.00;100262.41;5053177;28;1297;-60
2023/09/17 05:18:39;;;;;;;;;;;;;;;18.87;100.00;100270.91;5053243;28;883;-60
2023/09/17 05:21:07;;;;;;;;;;;;;;;18.96;100.00;100268.19;5053197;28;887;-60
2023/09/17 05:23:33;;;;;;;;;;;;;;;19.02;100.00;100260.03;5053091;28;834;-60
2023/09/17 05:26:00;;;;;;;;;;;;;;;19.00;100.00;100261.72;5053102;28;817;-60
2023/09/17 05:28:29;;;;;;;;;;;;;;;18.88;100.00;100261.28;5052963;28;1906;-60
2023/09/17 05:30:58;;;;;;;;;;;;;;;18.95;100.00;100255.44;5053332;28;875;-60
2023/09/17 05:33:26;;;;;;;;;;;;;;;19.13;100.00;100268.09;5052978;28;848;-60
2023/09/17 05:35:56;;;;;;;;;;;;;;;19.22;100.00;100268.19;5053014;28;1286;-60
2023/09/17 05:38:29;;;;;;;;;;;;;;;19.23;100.00;100274.59;5052998;28;840;-60
2023/09/17 05:40:56;;;;;;;;;;;;;;;19.28;100.00;100277.59;5052782;28;926;-60
2023/09/17 05:43:24;;;;;;;;;;;;;;;19.60;100.00;100270.09;5052891;28;851;-60
2023/09/17 05:45:56;;;;;;;;;;;;;;;19.96;100.00;100278.06;5034754;28;1208;-60
2023/09/17 05:48:25;;;;;;;;;;;;;;;20.21;100.00;100267.19;5052669;28;1889;-60
2023/09/17 05:50:54;;;;;;;;;;;;;;;20.34;100.00;100277.09;5052524;28;824;-60
2023/09/17 05:53:21;;;;;;;;;;;;;;;20.44;100.00;100274.31;5052632;28;863;-60
2023/09/17 05:55:47;;;;;;;;;;;;;;;20.50;100.00;100278.09;5052512;28;822;-60
2023/09/17 05:58:14;;;;;;;;;;;;;;;20.52;100.00;100281.22;5052515;28;801;-60
2023/09/17 06:00:41;;;;;;;;;;;;;;;20.76;100.00;100284.34;5052464;28;894;-60
2023/09/17 06:03:09;;;;;;;;;;;;;;;20.92;100.00;100283.31;5051659;28;840;-60
2023/09/17 06:05:36;;;;;;;;;;;;;;;21.01;100.00;100288.97;5052659;28;879;-60
2023/09/17 06:08:04;;;;;;;;;;;;;;;20.99;100.00;100286.66;5052428;28;1949;-60
2023/09/17 06:10:33;;;;;;;;;;;;;;;20.99;100.00;100283.03;5052334;28;864;-60
2023/09/17 06:12:59;;;;;;;;;;;;;;;21.03;100.00;100288.50;5052382;28;1351;-60
2023/09/17 06:15:27;;;;;;;;;;;;;;;21.14;100.00;100288.84;5030973;28;1412;-60
2023/09/17 06:17:53;;;;;;;;;;;;;;;21.22;100.00;100290.13;5032502;28;1236;-60
2023/09/17 06:20:21;;;;;;;;;;;;;;;21.18;100.00;100286.69;5032386;28;1306;-60
2023/09/17 06:22:48;;;;;;;;;;;;;;;21.20;100.00;100295.44;5031198;28;1435;-60
2023/09/17 06:25:15;;;;;;;;;;;;;;;21.24;100.00;100298.88;5032348;28;848;-60
2023/09/17 06:27:43;;;;;;;;;;;;;;;21.38;100.00;100294.72;5032161;28;1910;-60
2023/09/17 06:30:10;;;;;;;;;;;;;;;21.54;100.00;100300.06;5032084;28;849;-60
2023/09/17 06:32:37;;;;;;;;;;;;;;;21.63;100.00;100301.31;5032308;28;891;-60
2023/09/17 06:35:05;;;;;;;;;;;;;;;21.69;100.00;100302.28;5032184;28;808;-60
2023/09/17 06:37:31;;;;;;;;;;;;;;;21.68;100.00;100295.06;5031978;28;872;-59
2023/09/17 06:39:58;;;;;;;;;;;;;;;21.93;100.00;100297.59;5031904;28;938;-60
2023/09/17 07:13:26;;;;;;;;;;;;;;;26.31;100.00;100299.22;5438440;22;1527;-59
2023/09/17 07:15:53;;;;;;;;;;;;;;;26.68;100.00;100308.59;5054871;28;866;-59
2023/09/17 07:18:20;;;;;;;;;;;;;;;26.96;100.00;100310.13;5055657;28;824;-58
2023/09/17 07:20:49;;;;;;;;;;;;;;;27.01;100.00;100304.50;5055924;28;823;-59
2023/09/17 07:23:16;;;;;;;;;;;;;;;27.48;100.00;100307.88;5055547;28;843;-58
2023/09/17 07:25:44;;;;;;;;;;;;;;;27.19;100.00;100308.97;5055498;28;887;-58
2023/09/17 07:28:11;;;;;;;;;;;;;;;26.95;100.00;100314.22;5055338;28;1985;-58
2023/09/17 07:30:38;;;;;;;;;;;;;;;26.85;100.00;100310.81;5055610;28;863;-59
2023/09/17 07:33:05;;;;;;;;;;;;;;;27.18;100.00;100310.25;5055641;28;815;-59
2023/09/17 07:35:38;;;;;;;;;;;;;;;27.43;100.00;100305.78;5055339;28;965;-59
2023/09/17 07:38:05;;;;;;;;;;;;;;;27.73;100.00;100313.91;5055546;28;811;-58
2023/09/17 07:40:33;;;;;;;;;;;;;;;27.68;100.00;100317.53;5055351;28;808;-58
2023/09/17 07:43:01;;;;;;;;;;;;;;;27.35;100.00;100316.06;5055311;28;851;-58
2023/09/17 07:45:27;;;;;;;;;;;;;;;27.54;100.00;100313.56;5055177;28;820;-58
2023/09/17 07:47:55;;;;;;;;;;;;;;;27.19;100.00;100317.50;5053767;28;1960;-58
2023/09/17 07:50:22;;;;;;;;;;;;;;;27.01;100.00;100313.00;5037045;28;1395;-58
2023/09/17 07:52:48;;;;;;;;;;;;;;;26.40;100.00;100308.34;5055083;28;844;-58
2023/09/17 07:55:18;;;;;;;;;;;;;;;26.91;100.00;100313.66;5055070;28;832;-58
2023/09/17 07:57:46;;;;;;;;;;;;;;;26.38;100.00;100316.56;5054940;28;922;-58
2023/09/17 08:00:15;;;;;;;;;;;;;;;26.49;100.00;100313.06;5055007;28;953;-58
2023/09/17 08:02:44;;;;;;;;;;;;;;;27.59;100.00;100310.00;5054854;28;900;-58
2023/09/17 08:05:11;;;;;;;;;;;;;;;27.75;100.00;100310.56;5054730;28;836;-58
2023/09/17 08:07:40;;;;;;;;;;;;;;;26.48;100.00;100306.63;5054825;28;1898;-58
2023/09/17 08:10:07;;;;;;;;;;;;;;;26.27;100.00;100303.06;5054670;28;879;-58
2023/09/17 08:12:32;;;;;;;;;;;;;;;26.77;100.00;100301.19;5054179;28;1302;-58
2023/09/17 08:15:00;;;;;;;;;;;;;;;26.76;100.00;100303.28;5053358;28;1370;-58
2023/09/17 08:17:27;;;;;;;;;;;;;;;26.59;100.00;100302.34;5054527;28;926;-58
2023/09/17 08:19:56;;;;;;;;;;;;;;;26.19;100.00;100304.78;5054472;28;900;-59
2023/09/17 08:22:27;;;;;;;;;;;;;;;25.53;100.00;100292.16;5054441;28;816;-59
2023/09/17 08:24:53;;;;;;;;;;;;;;;25.17;100.00;100297.03;5053829;28;1029;-59
2023/09/17 08:27:21;;;;;;;;;;;;;;;25.16;100.00;100306.03;5053012;28;1910;-59
2023/09/17 08:29:48;;;;;;;;;;;;;;;25.13;100.00;100301.34;5054425;28;1170;-59
2023/09/17 08:32:14;;;;;;;;;;;;;;;25.72;100.00;100301.13;5054141;28;1262;-59
2023/09/17 08:34:41;;;;;;;;;;;;;;;25.93;100.00;100295.50;5054298;28;859;-59
2023/09/17 08:37:08;;;;;;;;;;;;;;;25.76;100.00;100298.88;5054152;28;875;-59
2023/09/17 08:39:34;;;;;;;;;;;;;;;25.30;100.00;100295.97;5054171;28;1018;-59
2023/09/17 08:42:01;;;;;;;;;;;;;;;26.02;100.00;100295.34;5053856;28;879;-59
2023/09/17 08:44:30;;;;;;;;;;;;;;;27.04;100.00;100292.13;5054106;28;875;-59
2023/09/17 08:46:59;;;;;;;;;;;;;;;27.84;100.00;100290.47;5054005;28;1890;-59
2023/09/17 08:49:26;;;;;;;;;;;;;;;28.46;100.00;100293.44;5054232;28;898;-59
2023/09/17 08:51:57;;;;;;;;;;;;;;;29.04;100.00;100299.41;5054096;28;915;-59
2023/09/17 08:54:29;;;;;;;;;;;;;;;29.19;100.00;100289.81;5053796;28;816;-59
2023/09/17 08:56:58;;;;;;;;;;;;;;;29.22;100.00;100288.78;5053741;28;882;-59
2023/09/17 08:59:29;;;;;;;;;;;;;;;29.48;100.00;100292.03;5053804;28;824;-59
2023/09/17 09:02:01;;;;;;;;;;;;;;;29.98;100.00;100290.31;5053753;28;831;-59
2023/09/17 09:04:29;;;;;;;;;;;;;;;29.84;100.00;100286.47;5053829;28;852;-59
2023/09/17 09:06:57;;;;;;;;;;;;;;;29.58;100.00;100300.31;5053681;28;1957;-59
2023/09/17 09:09:25;;;;;;;;;;;;;;;29.05;100.00;100286.72;5052296;28;1367;-59
2023/09/17 09:11:52;;;;;;;;;;;;;;;28.93;100.00;100293.72;5053578;28;927;-58
2023/09/17 09:14:19;;;;;;;;;;;;;;;28.71;100.00;100283.91;5053303;28;1249;-58
2023/09/17 09:16:45;;;;;;;;;;;;;;;28.47;100.00;100280.78;5053613;28;929;-58
2023/09/17 09:19:11;;;;;;;;;;;;;;;28.22;100.00;100288.25;5053472;28;851;-58
2023/09/17 09:21:37;;;;;;;;;;;;;;;27.48;100.00;100285.19;5053560;28;922;-58
2023/09/17 09:24:05;;;;;;;;;;;;;;;27.10;100.00;100275.16;5053814;28;863;-59
2023/09/17 09:26:35;;;;;;;;;;;;;;;27.34;100.00;100282.53;5053325;28;1914;-59
2023/09/17 09:29:04;;;;;;;;;;;;;;;27.54;100.00;100275.91;5053231;28;899;-59
2023/09/17 09:31:31;;;;;;;;;;;;;;;27.46;100.00;100278.44;5053186;28;874;-58
2023/09/17 09:34:02;;;;;;;;;;;;;;;26.95;100.00;100274.50;5053123;28;815;-59
2023/09/17 09:36:33;;;;;;;;;;;;;;;26.99;100.00;100281.53;5051326;28;1359;-58
2023/09/17 09:39:01;;;;;;;;;;;;;;;27.06;100.00;100268.94;5052962;28;887;-59
2023/09/17 09:41:29;;;;;;;;;;;;;;;27.33;100.00;100278.13;5052794;28;875;-59
2023/09/17 09:43:56;;;;;;;;;;;;;;;27.67;100.00;100276.19;5052983;28;847;-59
2023/09/17 09:46:26;;;;;;;;;;;;;;;27.85;100.00;100275.78;5052825;28;863;-59
2023/09/17 09:48:59;;;;;;;;;;;;;;;27.60;100.00;100277.47;5034964;28;1441;-58
2023/09/17 09:51:27;;;;;;;;;;;;;;;27.57;100.00;100272.03;5052820;28;824;-59
2023/09/17 09:53:54;;;;;;;;;;;;;;;27.59;100.00;100277.97;5052539;28;887;-58
2023/09/17 09:56:27;;;;;;;;;;;;;;;27.16;100.00;100266.66;5052728;28;828;-59
2023/09/17 09:58:55;;;;;;;;;;;;;;;26.49;100.00;100279.81;5052608;28;839;-59
2023/09/17 10:01:22;;;;;;;;;;;;;;;25.98;100.00;100269.28;5052600;28;815;-59
2023/09/17 10:03:51;;;;;;;;;;;;;;;26.38;100.00;100268.38;5052526;28;832;-58
2023/09/17 10:06:18;;;;;;;;;;;;;;;27.09;100.00;100265.06;5052502;28;879;-58
2023/09/17 10:08:46;;;;;;;;;;;;;;;27.72;100.00;100251.94;5052369;28;1910;-58
2023/09/17 10:11:14;;;;;;;;;;;;;;;28.06;100.00;100259.31;5052290;28;958;-57
2023/09/17 10:13:42;;;;;;;;;;;;;;;28.01;100.00;100254.38;5052137;28;1299;-58
2023/09/17 10:16:09;;;;;;;;;;;;;;;27.74;100.00;100255.84;5052340;28;891;-57
2023/09/17 10:18:38;;;;;;;;;;;;;;;27.77;100.00;100254.81;5052240;28;824;-58
2023/09/17 10:21:05;;;;;;;;;;;;;;;27.58;100.00;100253.72;5052263;28;880;-58
2023/09/17 10:23:33;;;;;;;;;;;;;;;27.76;100.00;100241.13;5052179;28;876;-58
2023/09/17 10:26:01;;;;;;;;;;;;;;;28.25;100.00;100250.28;5052908;28;808;-57
2023/09/17 10:28:30;;;;;;;;;;;;;;;28.44;100.00;100262.72;5052305;28;1917;-58
2023/09/17 10:30:57;;;;;;;;;;;;;;;28.54;100.00;100257.56;5052329;28;818;-58
2023/09/17 10:33:25;;;;;;;;;;;;;;;29.00;100.00;100249.75;5052116;28;871;-58
2023/09/17 10:35:52;;;;;;;;;;;;;;;29.57;100.00;100245.41;5051851;28;923;-58
2023/09/17 10:38:20;;;;;;;;;;;;;;;29.77;100.00;100246.41;5034057;28;1205;-58
2023/09/17 10:40:47;;;;;;;;;;;;;;;28.98;100.00;100244.56;5051868;28;875;-58
2023/09/17 10:43:16;;;;;;;;;;;;;;;28.02;100.00;100243.81;5051864;28;812;-58
2023/09/17 10:45:44;;;;;;;;;;;;;;;28.30;100.00;100249.53;5052056;28;912;-59
2023/09/17 10:48:11;;;;;;;;;;;;;;;28.95;100.00;100227.75;5051548;28;1886;-58
2023/09/17 10:50:38;;;;;;;;;;;;;;;29.25;100.00;100237.28;5051811;28;859;-58
2023/09/17 10:53:05;;;;;;;;;;;;;;;28.91;100.00;100233.72;5051736;28;852;-58
2023/09/17 10:55:36;;;;;;;;;;;;;;;28.49;100.00;100246.97;5051657;28;788;-59
2023/09/17 10:58:09;;;;;;;;;;;;;;;27.78;100.00;100235.69;5051694;28;881;-59
2023/09/17 11:00:37;;;;;;;;;;;;;;;27.32;100.00;100242.53;5051834;28;869;-58
2023/09/17 11:03:05;;;;;;;;;;;;;;;26.80;100.00;100229.28;5051672;28;839;-59
2023/09/17 11:05:32;;;;;;;;;;;;;;;27.37;100.00;100231.19;5051669;28;870;-59
2023/09/17 11:08:02;;;;;;;;;;;;;;;27.99;100.00;100233.47;5051462;28;1957;-58
2023/09/17 11:10:29;;;;;;;;;;;;;;;28.77;100.00;100229.09;5050531;28;1347;-58
2023/09/17 11:12:56;;;;;;;;;;;;;;;29.38;100.00;100219.63;5051836;28;1228;-59
2023/09/17 11:15:23;;;;;;;;;;;;;;;29.78;100.00;100222.31;5051748;28;891;-58
2023/09/17 11:17:50;;;;;;;;;;;;;;;29.79;100.00;100218.94;5051665;28;980;-58
2023/09/17 11:20:18;;;;;;;;;;;;;;;29.88;100.00;100215.00;5051688;28;828;-59
2023/09/17 11:22:50;;;;;;;;;;;;;;;29.78;100.00;100213.75;5051555;28;871;-59
2023/09/17 11:25:34;;;;;;;;;;;;;;;29.55;100.00;100218.75;5051537;28;824;-59
2023/09/17 11:31:20;;;;;;;;;;;;;;;28.36;100.00;100238.13;5051443;28;615;-58
2023/09/17 11:33:48;;;;;;;;;;;;;;;27.17;100.00;100237.78;5071440;28;840;-58
2023/09/17 11:36:16;;;;;;;;;;;;;;;26.26;100.00;100253.31;5070055;28;1188;-58
2023/09/17 11:38:47;;;;;;;;;;;;;;;24.54;100.00;100254.19;5071295;28;820;-58
2023/09/17 11:41:21;;;;;;;;;;;;;;;22.88;100.00;100258.28;5071279;28;816;-58
2023/09/17 11:43:51;;;;;;;;;;;;;;;22.02;100.00;100263.06;5071364;28;823;-61
2023/09/17 11:46:17;;;;;;;;;;;;;;;21.61;100.00;100265.22;5071327;28;875;-60
2023/09/17 11:48:44;;;;;;;;;;;;;;;21.06;100.00;100271.53;5071427;28;1885;-61
2023/09/17 11:51:23;;;;;;;;;;;;;;;20.59;100.00;100267.75;5071672;28;827;-61
2023/09/17 11:53:51;;;;;;;;;;;;;;;20.42;100.00;100257.16;5071118;28;1019;-65
2023/09/17 11:56:19;;;;;;;;;;;;;;;20.38;100.00;100262.94;5071189;28;1218;-63
2023/09/17 11:59:08;;;;;;;;;;;;;;;20.28;100.00;100255.69;5071398;28;835;-64
2023/09/17 12:01:53;;;;;;;;;;;;;;;20.36;100.00;100260.56;5073686;28;1146;-64
2023/09/17 12:04:27;;;;;;;;;;;;;;;20.40;100.00;100268.88;5074760;28;839;-65
2023/09/17 12:06:55;;;;;;;;;;;;;;;20.22;100.00;100263.13;5074594;28;1963;-65
2023/09/17 12:12:11;;;;;;;;;;;;;;;20.41;100.00;100253.56;5074812;28;1037;-66
2023/09/17 12:14:39;;;;;;;;;;;;;;;20.56;100.00;100251.00;5074511;28;1188;-66
2023/09/17 12:17:06;;;;;;;;;;;;;;;20.72;100.00;100248.00;5074458;28;899;-66
2023/09/17 12:19:33;;;;;;;;;;;;;;;20.90;100.00;100252.09;5074699;28;855;-66
2023/09/17 12:22:00;;;;;;;;;;;;;;;21.18;100.00;100253.72;5074367;28;838;-66
2023/09/17 12:25:04;;;;;;;;;;;;;;;;;;;;;
2023/09/17 12:27:35;;;;;;;;;;;;;;;21.51;100.00;100256.00;5074430;28;1961;-65
2023/09/17 12:30:05;;;;;;;;;;;;;;;21.65;100.00;100263.03;5074539;28;876;-64
2023/09/17 12:32:36;;;;;;;;;;;;;;;21.44;100.00;100261.16;5074302;28;816;-61
2023/09/17 12:35:05;;;;;;;;;;;;;;;21.24;100.00;100267.19;5072931;28;1152;-62
2023/09/17 12:37:32;;;;;;;;;;;;;;;21.19;100.00;100272.16;5074031;28;860;-59
2023/09/17 12:39:59;;;;;;;;;;;;;;;21.21;100.00;100275.31;5072791;28;1416;-62
2023/09/17 12:42:26;;;;;;;;;;;;;;;21.30;100.00;100276.56;5074298;28;824;-62
2023/09/17 12:44:53;;;;;;;;;;;;;;;21.32;100.00;100274.84;5073122;28;1385;-61
2023/09/17 12:47:21;;;;;;;;;;;;;;;21.36;100.00;100274.72;5073794;28;1939;-60
2023/09/17 12:49:48;;;;;;;;;;;;;;;21.25;100.00;100277.97;5074200;28;893;-61
2023/09/17 12:52:13;;;;;;;;;;;;;;;21.15;100.00;100271.53;5073840;28;823;-61
2023/09/17 12:54:40;;;;;;;;;;;;;;;21.05;100.00;100274.78;5074205;28;831;-60
2023/09/17 12:57:07;;;;;;;;;;;;;;;20.99;100.00;100281.03;5073760;28;873;-61
2023/09/17 12:59:37;;;;;;;;;;;;;;;20.96;100.00;100281.16;5073887;28;859;-61
2023/09/17 13:02:05;;;;;;;;;;;;;;;20.99;100.00;100283.84;5073638;28;855;-60
2023/09/17 13:04:39;;;;;;;;;;;;;;;20.94;100.00;100289.25;5073651;28;811;-61
2023/09/17 13:07:16;;;;;;;;;;;;;;;20.73;100.00;100280.44;5073758;28;1882;-61
2023/09/17 13:09:43;;;;;;;;;;;;;;;20.72;100.00;100281.69;5073523;28;807;-61
2023/09/17 13:12:11;;;;;;;;;;;;;;;20.77;100.00;100292.31;5073723;28;1013;-61
2023/09/17 13:14:38;;;;;;;;;;;;;;;20.88;100.00;100288.31;5073451;28;1281;-62
2023/09/17 13:17:05;;;;;;;;;;;;;;;21.01;100.00;100286.94;5073350;28;878;-60
2023/09/17 13:19:32;;;;;;;;;;;;;;;21.24;100.00;100287.63;5073405;28;867;-62
2023/09/17 13:21:59;;;;;;;;;;;;;;;21.63;100.00;100281.63;5073274;28;815;-61
2023/09/17 13:24:26;;;;;;;;;;;;;;;21.89;100.00;100282.91;5073365;28;891;-61
2023/09/17 13:26:57;;;;;;;;;;;;;;;21.94;100.00;100290.72;5073036;28;1909;-61